sensor_id;sensor_type;location;lat;lon;timestamp;pressure;altitude;pressure_sealevel;temperature;humidity
6853;BME280;3465;42.144;24.722;2023-01-26T00:00:24;143487.72;;;2.24;100.00
6853;BME280;3465;42.144;24.722;2023-01-26T00:02:50;143480.25;;;2.21;100.00
6853;BME280;3465;42.144;24.722;2023-01-26T00:05:15;143486.44;;;2.23;100.00
6853;BME280;3465;42.144;24.722;2023-01-26T00:07:40;143492.69;;;2.26;100.00
6853;BME280;3465;42.144;24.722;2023-01-26T00:10:10;143482.72;;;2.22;100.00
6853;BME280;3465;42.144;24.722;2023-01-26T00:12:35;143495.16;;;2.27;100.00
6853;BME280;3465;42.144;24.722;2023-01-26T00:15:01;143502.59;;;2.30;100.00
6853;BME280;3465;42.144;24.722;2023-01-26T00:17:27;143510.09;;;2.33;100.00
6853;BME280;3465;42.144;24.722;2023-01-26T00:19:53;143491.44;;;2.25;100.00
6853;BME280;3465;42.144;24.722;2023-01-26T00:22:19;143518.75;;;2.36;100.00
6853;BME280;3465;42.144;24.722;2023-01-26T00:24:45;143503.88;;;2.30;100.00
6853;BME280;3465;42.144;24.722;2023-01-26T00:27:10;143500.13;;;2.29;100.00
6853;BME280;3465;42.144;24.722;2023-01-26T00:29:36;143497.66;;;2.28;100.00
6853;BME280;3465;42.144;24.722;2023-01-26T00:32:01;143497.66;;;2.28;100.00
6853;BME280;3465;42.144;24.722;2023-01-26T00:34:27;143488.97;;;2.24;100.00
6853;BME280;3465;42.144;24.722;2023-01-26T00:36:52;143487.72;;;2.24;100.00
6853;BME280;3465;42.144;24.722;2023-01-26T00:39:17;143480.25;;;2.21;100.00
6853;BME280;3465;42.144;24.722;2023-01-26T00:41:43;143477.78;;;2.20;100.00
6853;BME280;3465;42.144;24.722;2023-01-26T00:44:27;143477.78;;;2.20;100.00
6853;BME280;3465;42.144;24.722;2023-01-26T00:46:52;143470.34;;;2.17;100.00
6853;BME280;3465;42.144;24.722;2023-01-26T00:49:17;143479.00;;;2.20;100.00
6853;BME280;3465;42.144;24.722;2023-01-26T00:51:43;143474.06;;;2.18;100.00
6853;BME280;3465;42.144;24.722;2023-01-26T00:54:08;143487.72;;;2.24;100.00
6853;BME280;3465;42.144;24.722;2023-01-26T00:56:34;143493.94;;;2.26;100.00
6853;BME280;3465;42.144;24.722;2023-01-26T00:58:59;143486.44;;;2.23;100.00
6853;BME280;3465;42.144;24.722;2023-01-26T01:01:24;143488.97;;;2.24;100.00
6853;BME280;3465;42.144;24.722;2023-01-26T01:03:50;143486.44;;;2.23;100.00
6853;BME280;3465;42.144;24.722;2023-01-26T01:06:16;143487.72;;;2.24;100.00
6853;BME280;3465;42.144;24.722;2023-01-26T01:08:42;143486.44;;;2.23;100.00
6853;BME280;3465;42.144;24.722;2023-01-26T01:11:10;143495.16;;;2.27;100.00
6853;BME280;3465;42.144;24.722;2023-01-26T01:13:36;143492.69;;;2.26;100.00
6853;BME280;3465;42.144;24.722;2023-01-26T01:16:09;143493.94;;;2.26;100.00
6853;BME280;3465;42.144;24.722;2023-01-26T01:18:35;143493.94;;;2.26;100.00
6853;BME280;3465;42.144;24.722;2023-01-26T01:21:06;143479.00;;;2.20;100.00
6853;BME280;3465;42.144;24.722;2023-01-26T01:23:31;143500.13;;;2.29;100.00
6853;BME280;3465;42.144;24.722;2023-01-26T01:25:58;143487.72;;;2.24;100.00
6853;BME280;3465;42.144;24.722;2023-01-26T01:28:24;143487.72;;;2.24;100.00
6853;BME280;3465;42.144;24.722;2023-01-26T01:30:49;143495.16;;;2.27;100.00
6853;BME280;3465;42.144;24.722;2023-01-26T01:33:14;143495.16;;;2.27;100.00
6853;BME280;3465;42.144;24.722;2023-01-26T01:35:40;143491.44;;;2.25;100.00
6853;BME280;3465;42.144;24.722;2023-01-26T01:38:05;143441.75;;;2.05;100.00
6853;BME280;3465;42.144;24.722;2023-01-26T01:40:30;143482.72;;;2.22;100.00
6853;BME280;3465;42.144;24.722;2023-01-26T01:42:56;143441.75;;;2.05;100.00
6853;BME280;3465;42.144;24.722;2023-01-26T01:47:51;143415.63;;;1.95;100.00
6853;BME280;3465;42.144;24.722;2023-01-26T01:50:17;143452.94;;;2.10;100.00
6853;BME280;3465;42.144;24.722;2023-01-26T01:52:43;143456.66;;;2.11;100.00
6853;BME280;3465;42.144;24.722;2023-01-26T01:55:11;143450.47;;;2.09;100.00
6853;BME280;3465;42.144;24.722;2023-01-26T01:57:39;143446.69;;;2.07;100.00
6853;BME280;3465;42.144;24.722;2023-01-26T02:00:17;143447.94;;;2.08;100.00
6853;BME280;3465;42.144;24.722;2023-01-26T02:02:44;143451.66;;;2.09;100.00
6853;BME280;3465;42.144;24.722;2023-01-26T02:05:32;143438.03;;;2.04;100.00
6853;BME280;3465;42.144;24.722;2023-01-26T02:08:01;143426.81;;;1.99;100.00
6853;BME280;3465;42.144;24.722;2023-01-26T02:10:27;143398.28;;;1.88;100.00
6853;BME280;3465;42.144;24.722;2023-01-26T02:12:54;143406.94;;;1.91;100.00
6853;BME280;3465;42.144;24.722;2023-01-26T02:15:21;143387.06;;;1.83;100.00
6853;BME280;3465;42.144;24.722;2023-01-26T02:17:47;143413.16;;;1.94;100.00
6853;BME280;3465;42.144;24.722;2023-01-26T02:20:36;143413.16;;;1.94;100.00
6853;BME280;3465;42.144;24.722;2023-01-26T02:23:35;143404.47;;;1.90;100.00
6853;BME280;3465;42.144;24.722;2023-01-26T02:26:11;143420.63;;;1.97;100.00
6853;BME280;3465;42.144;24.722;2023-01-26T02:28:40;143405.72;;;1.91;100.00
6853;BME280;3465;42.144;24.722;2023-01-26T02:31:06;143397.00;;;1.87;100.00
6853;BME280;3465;42.144;24.722;2023-01-26T02:33:32;143404.47;;;1.90;100.00
6853;BME280;3465;42.144;24.722;2023-01-26T02:35:58;143410.69;;;1.93;100.00
6853;BME280;3465;42.144;24.722;2023-01-26T02:38:28;143393.28;;;1.86;100.00
6853;BME280;3465;42.144;24.722;2023-01-26T02:40:58;143336.13;;;1.63;100.00
6853;BME280;3465;42.144;24.722;2023-01-26T02:43:25;143392.03;;;1.85;100.00
6853;BME280;3465;42.144;24.722;2023-01-26T02:45:51;143383.34;;;1.82;100.00
6853;BME280;3465;42.144;24.722;2023-01-26T02:48:17;143361.00;;;1.73;100.00
6853;BME280;3465;42.144;24.722;2023-01-26T02:51:01;143408.19;;;1.92;100.00
6853;BME280;3465;42.144;24.722;2023-01-26T02:53:26;143400.75;;;1.89;100.00
6853;BME280;3465;42.144;24.722;2023-01-26T02:55:52;143425.59;;;1.99;100.00
6853;BME280;3465;42.144;24.722;2023-01-26T02:58:17;143410.69;;;1.93;100.00
6853;BME280;3465;42.144;24.722;2023-01-26T03:00:42;143403.22;;;1.90;100.00
6853;BME280;3465;42.144;24.722;2023-01-26T03:03:14;143392.03;;;1.85;100.00
6853;BME280;3465;42.144;24.722;2023-01-26T03:05:40;143397.00;;;1.87;100.00
6853;BME280;3465;42.144;24.722;2023-01-26T03:08:06;143387.06;;;1.83;100.00
6853;BME280;3465;42.144;24.722;2023-01-26T03:10:34;143405.72;;;1.91;100.00
6853;BME280;3465;42.144;24.722;2023-01-26T03:12:59;143394.56;;;1.86;100.00
6853;BME280;3465;42.144;24.722;2023-01-26T03:15:25;143333.66;;;1.62;100.00
6853;BME280;3465;42.144;24.722;2023-01-26T03:18:14;143378.41;;;1.80;100.00
6853;BME280;3465;42.144;24.722;2023-01-26T03:21:04;143380.84;;;1.81;100.00
6853;BME280;3465;42.144;24.722;2023-01-26T03:23:49;143385.84;;;1.83;100.00
6853;BME280;3465;42.144;24.722;2023-01-26T03:26:33;143370.94;;;1.77;100.00
6853;BME280;3465;42.144;24.722;2023-01-26T03:29:17;143392.03;;;1.85;100.00
6853;BME280;3465;42.144;24.722;2023-01-26T03:31:43;143369.69;;;1.76;100.00
6853;BME280;3465;42.144;24.722;2023-01-26T03:34:08;143426.81;;;1.99;100.00
6853;BME280;3465;42.144;24.722;2023-01-26T03:36:34;143419.34;;;1.96;100.00
6853;BME280;3465;42.144;24.722;2023-01-26T03:38:59;143392.03;;;1.85;100.00
6853;BME280;3465;42.144;24.722;2023-01-26T03:41:24;143415.63;;;1.95;100.00
6853;BME280;3465;42.144;24.722;2023-01-26T03:44:08;143400.75;;;1.89;100.00
6853;BME280;3465;42.144;24.722;2023-01-26T03:46:52;143393.28;;;1.86;100.00
6853;BME280;3465;42.144;24.722;2023-01-26T03:49:36;143408.19;;;1.92;100.00
6853;BME280;3465;42.144;24.722;2023-01-26T03:52:20;143419.34;;;1.96;100.00
6853;BME280;3465;42.144;24.722;2023-01-26T03:55:05;143418.16;;;1.96;100.00
6853;BME280;3465;42.144;24.722;2023-01-26T03:57:49;143421.88;;;1.97;100.00
6853;BME280;3465;42.144;24.722;2023-01-26T04:00:14;143406.94;;;1.91;100.00
6853;BME280;3465;42.144;24.722;2023-01-26T04:02:40;143419.34;;;1.96;100.00
6853;BME280;3465;42.144;24.722;2023-01-26T04:05:24;143387.06;;;1.83;100.00
6853;BME280;3465;42.144;24.722;2023-01-26T04:08:08;143418.16;;;1.96;100.00
6853;BME280;3465;42.144;24.722;2023-01-26T04:10:52;143421.88;;;1.97;100.00
6853;BME280;3465;42.144;24.722;2023-01-26T04:13:18;143375.88;;;1.79;100.00
6853;BME280;3465;42.144;24.722;2023-01-26T04:16:03;143425.59;;;1.99;100.00
6853;BME280;3465;42.144;24.722;2023-01-26T04:18:48;143425.59;;;1.99;100.00
6853;BME280;3465;42.144;24.722;2023-01-26T04:21:32;143404.47;;;1.90;100.00
6853;BME280;3465;42.144;24.722;2023-01-26T04:23:58;143414.44;;;1.94;100.00
6853;BME280;3465;42.144;24.722;2023-01-26T04:26:26;143425.59;;;1.99;100.00
6853;BME280;3465;42.144;24.722;2023-01-26T04:29:02;143440.50;;;2.05;100.00
6853;BME280;3465;42.144;24.722;2023-01-26T04:31:28;143436.78;;;2.03;100.00
6853;BME280;3465;42.144;24.722;2023-01-26T04:33:53;143431.78;;;2.01;100.00
6853;BME280;3465;42.144;24.722;2023-01-26T04:36:19;143402.00;;;1.89;100.00
6853;BME280;3465;42.144;24.722;2023-01-26T04:38:44;143416.88;;;1.95;100.00
6853;BME280;3465;42.144;24.722;2023-01-26T04:41:09;143440.50;;;2.05;100.00
6853;BME280;3465;42.144;24.722;2023-01-26T04:43:35;143425.59;;;1.99;100.00
6853;BME280;3465;42.144;24.722;2023-01-26T04:46:06;143446.69;;;2.07;100.00
6853;BME280;3465;42.144;24.722;2023-01-26T04:48:32;143440.50;;;2.05;100.00
6853;BME280;3465;42.144;24.722;2023-01-26T04:51:06;143415.63;;;1.95;100.00
6853;BME280;3465;42.144;24.722;2023-01-26T04:53:32;143424.34;;;1.98;100.00
6853;BME280;3465;42.144;24.722;2023-01-26T04:55:58;143459.13;;;2.12;100.00
6853;BME280;3465;42.144;24.722;2023-01-26T04:58:24;143465.34;;;2.15;100.00
6853;BME280;3465;42.144;24.722;2023-01-26T05:00:54;143385.84;;;1.83;100.00
6853;BME280;3465;42.144;24.722;2023-01-26T05:03:21;143423.09;;;1.98;100.00
6853;BME280;3465;42.144;24.722;2023-01-26T05:05:51;143416.88;;;1.95;100.00
6853;BME280;3465;42.144;24.722;2023-01-26T05:08:17;143418.16;;;1.96;100.00
6853;BME280;3465;42.144;24.722;2023-01-26T05:10:43;143425.59;;;1.99;100.00
6853;BME280;3465;42.144;24.722;2023-01-26T05:13:09;143456.66;;;2.11;100.00
6853;BME280;3465;42.144;24.722;2023-01-26T05:15:35;143451.66;;;2.09;100.00
6853;BME280;3465;42.144;24.722;2023-01-26T05:18:01;143435.50;;;2.03;100.00
6853;BME280;3465;42.144;24.722;2023-01-26T05:20:26;143434.31;;;2.02;100.00
6853;BME280;3465;42.144;24.722;2023-01-26T05:22:52;143439.25;;;2.04;100.00
6853;BME280;3465;42.144;24.722;2023-01-26T05:25:18;143423.09;;;1.98;100.00
6853;BME280;3465;42.144;24.722;2023-01-26T05:27:43;143428.06;;;2.00;100.00
6853;BME280;3465;42.144;24.722;2023-01-26T05:30:10;143409.44;;;1.92;100.00
6853;BME280;3465;42.144;24.722;2023-01-26T05:32:36;143377.13;;;1.79;100.00
6853;BME280;3465;42.144;24.722;2023-01-26T05:35:02;143393.28;;;1.86;100.00
6853;BME280;3465;42.144;24.722;2023-01-26T05:37:28;143365.97;;;1.75;100.00
6853;BME280;3465;42.144;24.722;2023-01-26T05:39:54;143400.75;;;1.89;100.00
6853;BME280;3465;42.144;24.722;2023-01-26T05:42:20;143400.75;;;1.89;100.00
6853;BME280;3465;42.144;24.722;2023-01-26T05:44:46;143400.75;;;1.89;100.00
6853;BME280;3465;42.144;24.722;2023-01-26T05:47:11;143395.75;;;1.87;100.00
6853;BME280;3465;42.144;24.722;2023-01-26T05:49:37;143385.84;;;1.83;100.00
6853;BME280;3465;42.144;24.722;2023-01-26T05:52:10;143405.72;;;1.91;100.00
6853;BME280;3465;42.144;24.722;2023-01-26T05:54:36;143384.59;;;1.82;100.00
6853;BME280;3465;42.144;24.722;2023-01-26T05:57:01;143354.78;;;1.70;100.00
6853;BME280;3465;42.144;24.722;2023-01-26T05:59:27;143400.75;;;1.89;100.00
6853;BME280;3465;42.144;24.722;2023-01-26T06:01:52;143378.41;;;1.80;100.00
6853;BME280;3465;42.144;24.722;2023-01-26T06:04:18;143415.63;;;1.95;100.00
6853;BME280;3465;42.144;24.722;2023-01-26T06:06:43;143389.56;;;1.84;100.00
6853;BME280;3465;42.144;24.722;2023-01-26T06:09:09;143435.50;;;2.03;100.00
6853;BME280;3465;42.144;24.722;2023-01-26T06:11:35;143398.28;;;1.88;100.00
6853;BME280;3465;42.144;24.722;2023-01-26T06:14:00;143433.03;;;2.02;100.00
6853;BME280;3465;42.144;24.722;2023-01-26T06:16:26;143436.78;;;2.03;100.00
6853;BME280;3465;42.144;24.722;2023-01-26T06:18:51;143337.41;;;1.63;100.00
6853;BME280;3465;42.144;24.722;2023-01-26T06:21:17;143430.59;;;2.01;100.00
6853;BME280;3465;42.144;24.722;2023-01-26T06:23:42;143426.81;;;1.99;100.00
6853;BME280;3465;42.144;24.722;2023-01-26T06:26:08;143428.06;;;2.00;100.00
6853;BME280;3465;42.144;24.722;2023-01-26T06:28:33;143434.31;;;2.02;100.00
6853;BME280;3465;42.144;24.722;2023-01-26T06:31:04;143425.59;;;1.99;100.00
6853;BME280;3465;42.144;24.722;2023-01-26T06:33:31;143410.69;;;1.93;100.00
6853;BME280;3465;42.144;24.722;2023-01-26T06:36:02;143405.72;;;1.91;100.00
6853;BME280;3465;42.144;24.722;2023-01-26T06:38:28;143403.22;;;1.90;100.00
6853;BME280;3465;42.144;24.722;2023-01-26T06:40:54;143387.06;;;1.83;100.00
6853;BME280;3465;42.144;24.722;2023-01-26T06:43:19;143418.16;;;1.96;100.00
6853;BME280;3465;42.144;24.722;2023-01-26T06:45:45;143445.47;;;2.07;100.00
6853;BME280;3465;42.144;24.722;2023-01-26T06:48:11;143456.66;;;2.11;100.00
6853;BME280;3465;42.144;24.722;2023-01-26T06:50:38;143452.94;;;2.10;100.00
6853;BME280;3465;42.144;24.722;2023-01-26T06:53:23;143471.53;;;2.17;100.00
6853;BME280;3465;42.144;24.722;2023-01-26T06:55:49;143445.47;;;2.07;100.00
6853;BME280;3465;42.144;24.722;2023-01-26T06:58:16;143450.47;;;2.09;100.00
6853;BME280;3465;42.144;24.722;2023-01-26T07:00:41;143450.47;;;2.09;100.00
6853;BME280;3465;42.144;24.722;2023-01-26T07:03:09;143460.38;;;2.13;100.00
6853;BME280;3465;42.144;24.722;2023-01-26T07:05:35;143457.91;;;2.12;100.00
6853;BME280;3465;42.144;24.722;2023-01-26T07:08:03;143485.25;;;2.23;100.00
6853;BME280;3465;42.144;24.722;2023-01-26T07:10:30;143490.22;;;2.25;100.00
6853;BME280;3465;42.144;24.722;2023-01-26T07:12:56;143457.91;;;2.12;100.00
6853;BME280;3465;42.144;24.722;2023-01-26T07:15:21;143446.69;;;2.07;100.00
6853;BME280;3465;42.144;24.722;2023-01-26T07:17:46;143465.34;;;2.15;100.00
6853;BME280;3465;42.144;24.722;2023-01-26T07:20:12;143461.63;;;2.13;100.00
6853;BME280;3465;42.144;24.722;2023-01-26T07:22:37;143440.50;;;2.05;100.00
6853;BME280;3465;42.144;24.722;2023-01-26T07:25:05;143439.25;;;2.04;100.00
6853;BME280;3465;42.144;24.722;2023-01-26T07:27:30;143444.22;;;2.06;100.00
6853;BME280;3465;42.144;24.722;2023-01-26T07:30:04;143446.69;;;2.07;100.00
6853;BME280;3465;42.144;24.722;2023-01-26T07:32:30;143465.34;;;2.15;100.00
6853;BME280;3465;42.144;24.722;2023-01-26T07:34:55;143469.09;;;2.16;100.00
6853;BME280;3465;42.144;24.722;2023-01-26T07:37:21;143462.84;;;2.14;100.00
6853;BME280;3465;42.144;24.722;2023-01-26T07:39:46;143474.06;;;2.18;100.00
6853;BME280;3465;42.144;24.722;2023-01-26T07:42:13;143464.09;;;2.14;100.00
6853;BME280;3465;42.144;24.722;2023-01-26T07:44:38;143498.88;;;2.28;100.00
6853;BME280;3465;42.144;24.722;2023-01-26T07:47:04;143492.69;;;2.26;100.00
6853;BME280;3465;42.144;24.722;2023-01-26T07:49:30;143492.69;;;2.26;100.00
6853;BME280;3465;42.144;24.722;2023-01-26T07:51:56;143520.03;;;2.37;100.00
6853;BME280;3465;42.144;24.722;2023-01-26T07:54:21;143520.03;;;2.37;100.00
6853;BME280;3465;42.144;24.722;2023-01-26T07:56:51;143497.66;;;2.28;100.00
6853;BME280;3465;42.144;24.722;2023-01-26T07:59:17;143496.41;;;2.27;100.00
6853;BME280;3465;42.144;24.722;2023-01-26T08:01:42;143501.41;;;2.29;100.00
6853;BME280;3465;42.144;24.722;2023-01-26T08:04:07;143513.84;;;2.34;100.00
6853;BME280;3465;42.144;24.722;2023-01-26T08:06:33;143515.03;;;2.35;100.00
6853;BME280;3465;42.144;24.722;2023-01-26T08:08:58;143510.09;;;2.33;100.00
6853;BME280;3465;42.144;24.722;2023-01-26T08:11:23;143532.47;;;2.42;100.00
6853;BME280;3465;42.144;24.722;2023-01-26T08:13:51;143526.22;;;2.39;100.00
6853;BME280;3465;42.144;24.722;2023-01-26T08:16:17;143562.28;;;2.54;100.00
6853;BME280;3465;42.144;24.722;2023-01-26T08:18:44;143521.28;;;2.37;100.00
6853;BME280;3465;42.144;24.722;2023-01-26T08:21:11;143507.59;;;2.32;100.00
6853;BME280;3465;42.144;24.722;2023-01-26T08:23:37;143500.13;;;2.29;100.00
6853;BME280;3465;42.144;24.722;2023-01-26T08:26:04;143442.97;;;2.06;100.00
6853;BME280;3465;42.144;24.722;2023-01-26T08:28:30;143491.44;;;2.25;100.00
6853;BME280;3465;42.144;24.722;2023-01-26T08:31:05;143485.25;;;2.23;100.00
6853;BME280;3465;42.144;24.722;2023-01-26T08:33:31;143433.03;;;2.02;100.00
6853;BME280;3465;42.144;24.722;2023-01-26T08:36:02;143482.72;;;2.22;100.00
6853;BME280;3465;42.144;24.722;2023-01-26T08:38:29;143465.34;;;2.15;100.00
6853;BME280;3465;42.144;24.722;2023-01-26T08:40:56;143510.09;;;2.33;100.00
6853;BME280;3465;42.144;24.722;2023-01-26T08:43:22;143518.75;;;2.36;100.00
6853;BME280;3465;42.144;24.722;2023-01-26T08:45:47;143520.03;;;2.37;100.00
6853;BME280;3465;42.144;24.722;2023-01-26T08:48:12;143532.47;;;2.42;100.00
6853;BME280;3465;42.144;24.722;2023-01-26T08:50:38;143568.50;;;2.56;100.00
6853;BME280;3465;42.144;24.722;2023-01-26T08:53:03;143544.91;;;2.47;100.00
6853;BME280;3465;42.144;24.722;2023-01-26T08:55:29;143525.00;;;2.39;100.00
6853;BME280;3465;42.144;24.722;2023-01-26T08:57:54;143521.28;;;2.37;100.00
6853;BME280;3465;42.144;24.722;2023-01-26T09:00:21;143495.16;;;2.27;100.00
6853;BME280;3465;42.144;24.722;2023-01-26T09:02:47;143549.88;;;2.49;100.00
6853;BME280;3465;42.144;24.722;2023-01-26T09:05:13;143547.38;;;2.48;100.00
6853;BME280;3465;42.144;24.722;2023-01-26T09:07:38;143530.00;;;2.41;100.00
6853;BME280;3465;42.144;24.722;2023-01-26T09:10:05;143538.66;;;2.44;100.00
6853;BME280;3465;42.144;24.722;2023-01-26T09:12:30;143538.66;;;2.44;100.00
6853;BME280;3465;42.144;24.722;2023-01-26T09:14:55;143554.81;;;2.51;100.00
6853;BME280;3465;42.144;24.722;2023-01-26T09:17:21;143564.78;;;2.55;100.00
6853;BME280;3465;42.144;24.722;2023-01-26T09:19:46;143554.81;;;2.51;100.00
6853;BME280;3465;42.144;24.722;2023-01-26T09:22:12;143512.56;;;2.34;100.00
6853;BME280;3465;42.144;24.722;2023-01-26T09:24:39;143551.09;;;2.49;100.00
6853;BME280;3465;42.144;24.722;2023-01-26T09:27:05;143445.47;;;2.07;100.00
6853;BME280;3465;42.144;24.722;2023-01-26T09:29:30;143534.94;;;2.43;100.00
6853;BME280;3465;42.144;24.722;2023-01-26T09:31:55;143532.47;;;2.42;100.00
6853;BME280;3465;42.144;24.722;2023-01-26T09:34:21;143537.44;;;2.44;100.00
6853;BME280;3465;42.144;24.722;2023-01-26T09:36:46;143505.13;;;2.31;100.00
6853;BME280;3465;42.144;24.722;2023-01-26T09:39:12;143488.97;;;2.24;100.00
6853;BME280;3465;42.144;24.722;2023-01-26T09:41:55;143520.03;;;2.37;100.00
6853;BME280;3465;42.144;24.722;2023-01-26T09:44:25;143515.03;;;2.35;100.00
6853;BME280;3465;42.144;24.722;2023-01-26T09:47:06;143526.22;;;2.39;100.00
6853;BME280;3465;42.144;24.722;2023-01-26T09:49:45;143552.34;;;2.50;100.00
6853;BME280;3465;42.144;24.722;2023-01-26T09:52:19;143558.53;;;2.52;100.00
6853;BME280;3465;42.144;24.722;2023-01-26T09:54:50;143562.28;;;2.54;100.00
6853;BME280;3465;42.144;24.722;2023-01-26T09:57:20;143557.34;;;2.52;100.00
6853;BME280;3465;42.144;24.722;2023-01-26T10:00:03;143537.44;;;2.44;100.00
6853;BME280;3465;42.144;24.722;2023-01-26T10:02:49;143491.44;;;2.25;100.00
6853;BME280;3465;42.144;24.722;2023-01-26T10:07:48;143487.72;;;2.24;100.00
6853;BME280;3465;42.144;24.722;2023-01-26T10:10:23;143456.66;;;2.11;100.00
6853;BME280;3465;42.144;24.722;2023-01-26T10:12:51;143483.97;;;2.22;100.00
6853;BME280;3465;42.144;24.722;2023-01-26T10:17:46;143465.34;;;2.15;100.00
6853;BME280;3465;42.144;24.722;2023-01-26T10:20:38;143471.53;;;2.17;100.00
6853;BME280;3465;42.144;24.722;2023-01-26T10:23:18;143495.16;;;2.27;100.00
6853;BME280;3465;42.144;24.722;2023-01-26T10:25:46;143466.56;;;2.15;100.00
6853;BME280;3465;42.144;24.722;2023-01-26T10:28:16;143500.13;;;2.29;100.00
6853;BME280;3465;42.144;24.722;2023-01-26T10:30:44;143465.34;;;2.15;100.00
6853;BME280;3465;42.144;24.722;2023-01-26T10:33:17;143462.84;;;2.14;100.00
6853;BME280;3465;42.144;24.722;2023-01-26T10:35:43;143440.50;;;2.05;100.00
6853;BME280;3465;42.144;24.722;2023-01-26T10:43:42;143465.34;;;2.15;100.00
6853;BME280;3465;42.144;24.722;2023-01-26T10:48:52;143506.34;;;2.31;100.00
6853;BME280;3465;42.144;24.722;2023-01-26T10:51:26;143493.94;;;2.26;100.00
6853;BME280;3465;42.144;24.722;2023-01-26T10:56:46;143461.63;;;2.13;100.00
6853;BME280;3465;42.144;24.722;2023-01-26T10:59:20;143423.09;;;1.98;100.00
6853;BME280;3465;42.144;24.722;2023-01-26T11:01:54;143410.69;;;1.93;100.00
6853;BME280;3465;42.144;24.722;2023-01-26T11:04:20;143382.13;;;1.81;100.00
6853;BME280;3465;42.144;24.722;2023-01-26T11:06:46;143452.94;;;2.10;100.00
6853;BME280;3465;42.144;24.722;2023-01-26T11:09:26;143481.50;;;2.21;100.00
6853;BME280;3465;42.144;24.722;2023-01-26T11:12:03;143492.69;;;2.26;100.00
6853;BME280;3465;42.144;24.722;2023-01-26T11:14:31;143520.03;;;2.37;100.00
6853;BME280;3465;42.144;24.722;2023-01-26T11:17:20;143515.03;;;2.35;100.00
6853;BME280;3465;42.144;24.722;2023-01-26T11:33:43;143515.03;;;2.35;100.00
6853;BME280;3465;42.144;24.722;2023-01-26T11:39:26;143539.91;;;2.45;100.00
6853;BME280;3465;42.144;24.722;2023-01-26T11:47:48;143536.19;;;2.43;100.00
6853;BME280;3465;42.144;24.722;2023-01-26T11:50:51;143515.03;;;2.35;100.00
6853;BME280;3465;42.144;24.722;2023-01-26T11:58:41;143500.13;;;2.29;100.00
6853;BME280;3465;42.144;24.722;2023-01-26T12:01:18;143522.50;;;2.38;100.00
6853;BME280;3465;42.144;24.722;2023-01-26T12:03:49;143537.44;;;2.44;100.00
6853;BME280;3465;42.144;24.722;2023-01-26T12:06:18;143549.88;;;2.49;100.00
6853;BME280;3465;42.144;24.722;2023-01-26T12:11:38;143567.25;;;2.56;100.00
6853;BME280;3465;42.144;24.722;2023-01-26T12:14:42;143583.41;;;2.62;100.00
6853;BME280;3465;42.144;24.722;2023-01-26T12:22:51;143566.00;;;2.55;100.00
6853;BME280;3465;42.144;24.722;2023-01-26T12:25:36;143573.50;;;2.58;100.00
6853;BME280;3465;42.144;24.722;2023-01-26T12:30:50;143600.84;;;2.69;100.00
6853;BME280;3465;42.144;24.722;2023-01-26T12:33:17;143605.78;;;2.71;100.00
6853;BME280;3465;42.144;24.722;2023-01-26T12:38:24;143600.84;;;2.69;100.00
6853;BME280;3465;42.144;24.722;2023-01-26T12:41:08;143604.56;;;2.71;100.00
6853;BME280;3465;42.144;24.722;2023-01-26T12:46:31;143626.94;;;2.80;100.00
6853;BME280;3465;42.144;24.722;2023-01-26T12:51:56;143605.78;;;2.71;100.00
6853;BME280;3465;42.144;24.722;2023-01-26T12:57:04;143567.25;;;2.56;100.00
6853;BME280;3465;42.144;24.722;2023-01-26T12:59:36;143566.00;;;2.55;100.00
6853;BME280;3465;42.144;24.722;2023-01-26T13:02:29;143580.94;;;2.61;100.00
6853;BME280;3465;42.144;24.722;2023-01-26T13:04:57;143561.06;;;2.53;100.00
6853;BME280;3465;42.144;24.722;2023-01-26T13:10:25;143599.59;;;2.69;100.00
6853;BME280;3465;42.144;24.722;2023-01-26T13:12:59;143603.31;;;2.70;100.00
6853;BME280;3465;42.144;24.722;2023-01-26T13:15:30;143598.31;;;2.68;100.00
6853;BME280;3465;42.144;24.722;2023-01-26T13:18:00;143592.13;;;2.66;100.00
6853;BME280;3465;42.144;24.722;2023-01-26T13:20:45;143584.69;;;2.63;100.00
6853;BME280;3465;42.144;24.722;2023-01-26T13:28:39;143602.03;;;2.70;100.00
6853;BME280;3465;42.144;24.722;2023-01-26T13:31:05;143578.44;;;2.60;100.00
6853;BME280;3465;42.144;24.722;2023-01-26T13:33:31;143603.31;;;2.70;100.00
6853;BME280;3465;42.144;24.722;2023-01-26T13:35:58;143602.03;;;2.70;100.00
6853;BME280;3465;42.144;24.722;2023-01-26T13:38:46;143602.03;;;2.70;100.00
6853;BME280;3465;42.144;24.722;2023-01-26T13:41:18;143602.03;;;2.70;100.00
6853;BME280;3465;42.144;24.722;2023-01-26T13:43:59;143590.88;;;2.65;100.00
6853;BME280;3465;42.144;24.722;2023-01-26T13:46:54;143583.41;;;2.62;100.00
6853;BME280;3465;42.144;24.722;2023-01-26T13:49:39;143573.50;;;2.58;100.00
6853;BME280;3465;42.144;24.722;2023-01-26T13:52:21;143574.69;;;2.59;100.00
6853;BME280;3465;42.144;24.722;2023-01-26T13:54:49;143549.88;;;2.49;100.00
6853;BME280;3465;42.144;24.722;2023-01-26T13:57:28;143567.25;;;2.56;100.00
6853;BME280;3465;42.144;24.722;2023-01-26T13:59:55;143582.16;;;2.62;100.00
6853;BME280;3465;42.144;24.722;2023-01-26T14:02:29;143567.25;;;2.56;100.00
6853;BME280;3465;42.144;24.722;2023-01-26T14:04:55;143547.38;;;2.48;100.00
6853;BME280;3465;42.144;24.722;2023-01-26T14:07:51;143573.50;;;2.58;100.00
6853;BME280;3465;42.144;24.722;2023-01-26T14:10:18;143563.53;;;2.54;100.00
6853;BME280;3465;42.144;24.722;2023-01-26T14:12:53;143554.81;;;2.51;100.00
6853;BME280;3465;42.144;24.722;2023-01-26T14:15:26;143548.63;;;2.48;100.00
6853;BME280;3465;42.144;24.722;2023-01-26T14:17:58;143556.06;;;2.51;100.00
6853;BME280;3465;42.144;24.722;2023-01-26T14:20:36;143554.81;;;2.51;100.00
6853;BME280;3465;42.144;24.722;2023-01-26T14:25:32;143534.94;;;2.43;100.00
6853;BME280;3465;42.144;24.722;2023-01-26T14:27:58;143532.47;;;2.42;100.00
6853;BME280;3465;42.144;24.722;2023-01-26T14:30:27;143527.47;;;2.40;100.00
6853;BME280;3465;42.144;24.722;2023-01-26T14:33:01;143541.16;;;2.45;100.00